Time;durP1;ratioP1;P1;durP2;ratioP2;P2;SDS_P1;SDS_P2;PMS_P1;PMS_P2;Temp;Humidity;BMP_temperature;BMP_pressure;BME280_temperature;BME280_humidity;BME280_pressure;Samples;Min_cycle;Max_cycle;Signal;HPM_P1;HPM_P2
2022/03/17 00:00:04;;;;;;;21.52;9.43;;;;;;;8.65;47.57;99651.47;4502097;31;20118;-78
2022/03/17 00:02:30;;;;;;;20.33;10.05;;;;;;;8.81;47.05;99642.19;4491619;31;20503;-77
2022/03/17 00:04:55;;;;;;;20.35;10.52;;;;;;;8.82;47.09;99651.78;4489729;31;20092;-82
2022/03/17 00:07:21;;;;;;;23.08;10.95;;;;;;;8.84;47.10;99647.31;4490931;31;20123;-82
2022/03/17 00:09:46;;;;;;;21.02;10.38;;;;;;;8.70;47.46;99649.56;4494807;31;20114;-81
2022/03/17 00:12:13;;;;;;;20.58;11.10;;;;;;;8.78;47.50;99646.69;4490795;31;20100;-82
2022/03/17 00:14:38;;;;;;;20.73;11.35;;;;;;;8.78;47.18;99654.56;4489805;31;20080;-83
2022/03/17 00:17:04;;;;;;;20.58;10.18;;;;;;;8.83;46.65;99655.28;4482275;31;20189;-81
2022/03/17 00:19:30;;;;;;;19.70;10.20;;;;;;;8.95;46.52;99648.75;4484863;31;20117;-79
2022/03/17 00:21:55;;;;;;;20.65;10.68;;;;;;;8.75;47.06;99646.78;4489691;31;20092;-78
2022/03/17 00:24:22;;;;;;;22.08;10.90;;;;;;;8.68;47.00;99647.91;4492909;31;20185;-83
2022/03/17 00:26:49;;;;;;;20.83;10.77;;;;;;;8.72;47.05;99642.50;4486640;31;20088;-84
2022/03/17 00:29:15;;;;;;;21.52;11.57;;;;;;;8.56;47.17;99636.88;4500903;31;20414;-83
2022/03/17 00:31:41;;;;;;;24.52;11.40;;;;;;;8.40;47.45;99654.00;4502110;31;20114;-82
2022/03/17 00:34:07;;;;;;;23.90;10.98;;;;;;;8.55;47.27;99650.91;4501130;31;20478;-83
2022/03/17 00:36:34;;;;;;;24.15;11.65;;;;;;;8.72;46.86;99653.00;4502354;31;20493;-83
2022/03/17 00:39:00;;;;;;;20.37;10.57;;;;;;;8.66;46.85;99655.81;4502256;31;20113;-80
2022/03/17 00:41:26;;;;;;;23.48;11.40;;;;;;;8.73;46.72;99662.59;4502083;31;20124;-80
2022/03/17 00:43:51;;;;;;;22.52;11.07;;;;;;;8.55;47.22;99653.53;4502019;31;20450;-81
2022/03/17 00:46:17;;;;;;;23.23;12.07;;;;;;;8.74;46.76;99663.47;4500241;31;20144;-82
2022/03/17 00:48:42;;;;;;;22.77;11.45;;;;;;;8.77;46.57;99661.59;4486620;31;20364;-81
2022/03/17 00:51:08;;;;;;;23.15;11.75;;;;;;;8.88;46.23;99652.47;4486245;31;20387;-81
2022/03/17 00:53:33;;;;;;;22.27;11.57;;;;;;;8.91;46.05;99661.12;4486637;31;20100;-82
2022/03/17 00:55:58;;;;;;;22.10;10.95;;;;;;;8.68;46.60;99654.00;4486349;31;20390;-81
2022/03/17 00:58:24;;;;;;;23.12;12.32;;;;;;;8.89;46.19;99654.22;4486209;31;20475;-81
2022/03/17 01:00:50;;;;;;;23.67;12.18;;;;;;;8.66;46.77;99655.81;4498142;31;20147;-82
2022/03/17 01:03:15;;;;;;;22.48;11.18;;;;;;;8.79;46.41;99656.28;4487702;31;20111;-80
2022/03/17 01:05:41;;;;;;;23.65;12.20;;;;;;;8.85;46.20;99661.34;4502240;31;20096;-80
2022/03/17 01:08:08;;;;;;;23.48;12.10;;;;;;;8.62;46.84;99659.47;4487945;31;20126;-81
2022/03/17 01:10:33;;;;;;;21.27;11.63;;;;;;;8.35;47.54;99664.66;4502353;31;20114;-81
2022/03/17 01:13:01;;;;;;;23.20;13.13;;;;;;;8.52;46.96;99665.91;4502419;31;20092;-80
2022/03/17 01:15:29;;;;;;;25.92;12.82;;;;;;;8.50;46.92;99665.97;4501082;31;20091;-81
2022/03/17 01:17:54;;;;;;;22.65;11.75;;;;;;;8.25;47.47;99674.59;4502380;31;20092;-81
2022/03/17 01:20:20;;;;;;;24.52;12.88;;;;;;;8.58;47.02;99668.34;4502288;31;20114;-81
2022/03/17 01:22:45;;;;;;;24.58;12.65;;;;;;;8.68;46.68;99668.91;4502274;31;20088;-81
2022/03/17 01:25:11;;;;;;;23.40;12.68;;;;;;;8.71;46.62;99674.94;4502396;31;20123;-81
2022/03/17 01:27:36;;;;;;;24.60;11.95;;;;;;;8.59;46.99;99668.28;4487736;31;20092;-81
2022/03/17 01:30:04;;;;;;;24.87;12.98;;;;;;;8.73;46.43;99670.50;4496926;31;20124;-81
2022/03/17 01:32:32;;;;;;;25.20;12.88;;;;;;;8.56;46.80;99670.19;4486395;32;20116;-82
2022/03/17 01:34:57;;;;;;;25.45;12.43;;;;;;;8.54;46.73;99669.38;4486838;32;20108;-82
2022/03/17 01:37:23;;;;;;;24.63;13.15;;;;;;;8.20;47.37;99673.00;4486575;31;20119;-82
2022/03/17 01:39:48;;;;;;;25.10;12.57;;;;;;;8.38;47.00;99667.19;4486107;31;20080;-82
2022/03/17 01:42:13;;;;;;;28.30;13.25;;;;;;;8.38;47.00;99674.19;4486249;31;20123;-82
2022/03/17 01:44:39;;;;;;;24.63;12.85;;;;;;;8.55;46.52;99671.91;4486285;31;20103;-82
2022/03/17 01:49:49;;;;;;;27.45;13.75;;;;;;;8.44;46.64;99684.53;4502130;31;20111;-81
2022/03/17 01:52:15;;;;;;;27.73;13.07;;;;;;;8.59;46.29;99684.03;4501757;31;20100;-81
2022/03/17 01:54:41;;;;;;;27.90;13.90;;;;;;;8.63;46.20;99679.56;4487623;31;20100;-81
2022/03/17 01:57:09;;;;;;;25.08;13.20;;;;;;;8.76;45.83;99675.63;4501975;31;20100;-81
2022/03/17 01:59:35;;;;;;;24.63;12.43;;;;;;;8.84;45.75;99675.38;4487694;31;20500;-81
2022/03/17 02:02:03;;;;;;;25.35;13.25;;;;;;;8.64;45.97;99676.88;4470355;32;20400;-80
2022/03/17 02:04:29;;;;;;;25.12;12.88;;;;;;;8.57;46.08;99675.34;4471831;32;20176;-80
2022/03/17 02:06:55;;;;;;;25.17;13.95;;;;;;;8.54;46.28;99672.00;4486279;32;20093;-80
2022/03/17 02:09:24;;;;;;;23.90;12.18;;;;;;;8.54;46.19;99670.22;4485824;32;20112;-80
2022/03/17 02:14:34;;;;;;;27.60;14.02;;;;;;;8.70;45.58;99678.47;4485787;32;20124;-79
2022/03/17 02:17:00;;;;;;;24.63;13.55;;;;;;;8.76;45.68;99687.91;4486496;31;20096;-80
2022/03/17 02:19:25;;;;;;;25.48;13.00;;;;;;;8.38;46.31;99688.19;4487191;31;20132;-81
2022/03/17 02:21:51;;;;;;;25.25;13.50;;;;;;;8.65;45.64;99683.88;4501442;31;20092;-81
2022/03/17 02:27:02;;;;;;;26.58;13.10;;;;;;;8.52;45.91;99690.44;4501640;31;20083;-81
2022/03/17 02:29:28;;;;;;;24.87;13.20;;;;;;;8.68;45.43;99692.56;4501381;31;20118;-81
2022/03/17 02:31:55;;;;;;;24.48;13.13;;;;;;;8.78;45.42;99691.34;4480105;32;20130;-80
2022/03/17 02:34:20;;;;;;;25.30;13.73;;;;;;;8.63;45.77;99693.56;4485740;32;20092;-81
2022/03/17 02:36:48;;;;;;;24.80;13.25;;;;;;;8.72;45.58;99692.41;4471239;32;20119;-81
2022/03/17 02:39:18;;;;;;;24.40;13.18;;;;;;;8.54;45.81;99696.47;4485484;32;20096;-81
2022/03/17 02:41:43;;;;;;;27.45;13.38;;;;;;;8.69;45.45;99694.25;4471235;32;20166;-82
2022/03/17 02:44:10;;;;;;;24.67;12.90;;;;;;;8.34;46.26;99699.69;4471202;32;20447;-81
2022/03/17 02:46:35;;;;;;;25.42;13.18;;;;;;;8.59;45.61;99704.19;4485589;32;20092;-80
2022/03/17 02:49:01;;;;;;;23.60;12.80;;;;;;;8.41;45.83;99705.63;4486255;31;20076;-81
2022/03/17 02:51:26;;;;;;;26.77;12.90;;;;;;;8.61;45.31;99702.38;4501329;31;20372;-81
2022/03/17 02:53:52;;;;;;;23.98;12.45;;;;;;;8.41;45.63;99706.50;4501535;31;20135;-81
2022/03/17 02:56:17;;;;;;;27.02;13.45;;;;;;;8.63;45.26;99705.81;4486816;31;20126;-81
2022/03/17 02:58:42;;;;;;;29.50;13.70;;;;;;;8.56;45.33;99709.56;4500846;31;20362;-80
2022/03/17 03:01:08;;;;;;;26.00;13.73;;;;;;;8.25;45.82;99721.00;4499769;31;20091;-81
2022/03/17 03:03:33;;;;;;;24.85;12.80;;;;;;;8.34;45.82;99714.59;4501163;31;20431;-80
2022/03/17 03:05:59;;;;;;;25.60;13.27;;;;;;;8.43;45.84;99725.69;4486557;31;20110;-79
2022/03/17 03:08:24;;;;;;;24.35;13.45;;;;;;;8.11;46.53;99733.63;4500438;31;20116;-80
2022/03/17 03:10:50;;;;;;;26.55;14.27;;;;;;;8.35;45.92;99729.44;4486501;31;20095;-80
2022/03/17 03:13:15;;;;;;;25.48;12.90;;;;;;;8.29;46.11;99738.34;4498165;31;20122;-80
2022/03/17 03:15:41;;;;;;;27.42;13.73;;;;;;;8.26;45.97;99748.94;4473096;32;20097;-81
2022/03/17 03:18:07;;;;;;;24.20;13.50;;;;;;;8.02;46.42;99753.16;4487497;31;20111;-81
2022/03/17 03:20:32;;;;;;;27.83;13.10;;;;;;;8.21;45.96;99756.97;4486088;32;20176;-81
2022/03/17 03:22:58;;;;;;;27.02;13.07;;;;;;;8.18;45.98;99761.44;4486019;32;20100;-81
2022/03/17 03:25:23;;;;;;;25.12;13.73;;;;;;;8.03;46.39;99760.97;4487369;31;20141;-81
2022/03/17 03:27:49;;;;;;;23.35;12.40;;;;;;;8.10;45.97;99758.19;4487242;31;20103;-80
2022/03/17 03:30:15;;;;;;;26.00;13.27;;;;;;;8.10;46.01;99758.19;4488123;31;20177;-80
2022/03/17 03:32:44;;;;;;;27.65;14.38;;;;;;;7.98;46.18;99749.75;4503093;31;20096;-81
2022/03/17 03:37:56;;;;;;;25.60;13.05;;;;;;;8.21;45.18;99751.72;4490787;31;20098;-80
2022/03/17 03:40:22;;;;;;;26.48;13.48;;;;;;;7.88;46.04;99759.66;4488673;31;20205;-80
2022/03/17 03:42:47;;;;;;;26.83;14.80;;;;;;;8.04;45.66;99753.97;4502932;31;20104;-81
2022/03/17 03:45:13;;;;;;;28.12;13.88;;;;;;;7.90;45.74;99761.34;4501376;31;20486;-80
2022/03/17 03:47:38;;;;;;;25.20;13.43;;;;;;;7.79;46.10;99759.03;4503086;31;20114;-79
2022/03/17 03:50:05;;;;;;;26.87;13.25;;;;;;;7.81;45.90;99759.84;4503038;31;20104;-80
2022/03/17 03:52:30;;;;;;;29.95;13.95;;;;;;;7.77;45.83;99758.22;4488671;31;20164;-80
2022/03/17 03:54:55;;;;;;;29.27;14.25;;;;;;;7.64;45.90;99768.19;4503056;31;20088;-80
2022/03/17 03:57:21;;;;;;;29.05;13.93;;;;;;;7.63;45.91;99774.31;4502392;31;20085;-80
2022/03/17 03:59:47;;;;;;;26.80;13.82;;;;;;;8.06;44.97;99768.75;4475712;31;20160;-80
2022/03/17 04:02:13;;;;;;;26.70;13.25;;;;;;;8.07;44.72;99762.63;4477015;32;20126;-80
2022/03/17 04:04:42;;;;;;;26.77;13.82;;;;;;;8.02;44.69;99763.66;4473038;32;20093;-79
2022/03/17 04:07:10;;;;;;;25.98;12.93;;;;;;;8.11;44.29;99757.25;4472818;32;20390;-80
2022/03/17 04:09:40;;;;;;;27.83;14.10;;;;;;;8.02;44.65;99751.38;4489790;31;20092;-80
2022/03/17 04:12:10;;;;;;;27.33;13.65;;;;;;;8.13;44.40;99750.19;4502714;31;20096;-81
2022/03/17 04:14:36;;;;;;;26.77;13.23;;;;;;;8.19;43.95;99742.13;4502757;31;20130;-80
2022/03/17 04:17:02;;;;;;;26.33;14.25;;;;;;;8.29;43.74;99740.97;4502792;31;20112;-78
2022/03/17 04:19:28;;;;;;;26.62;13.18;;;;;;;8.31;43.58;99739.16;4488432;31;20127;-80
2022/03/17 04:21:54;;;;;;;28.17;13.38;;;;;;;8.14;44.01;99744.06;4488210;31;20108;-80
2022/03/17 04:24:20;;;;;;;26.90;13.73;;;;;;;8.18;44.01;99740.44;4497028;31;20114;-80
2022/03/17 04:26:46;;;;;;;28.92;14.68;;;;;;;8.08;44.07;99747.72;4493266;31;20378;-79
2022/03/17 04:29:12;;;;;;;26.12;13.52;;;;;;;8.29;43.66;99738.34;4485791;32;20457;-80
2022/03/17 04:31:38;;;;;;;28.35;13.98;;;;;;;8.12;44.09;99744.09;4489885;31;20118;-81
2022/03/17 04:34:04;;;;;;;26.25;12.82;;;;;;;8.02;44.52;99748.75;4502581;31;20883;-79
2022/03/17 04:36:31;;;;;;;27.35;13.02;;;;;;;8.06;44.22;99752.16;4502734;31;20439;-81
2022/03/17 04:38:57;;;;;;;25.15;12.77;;;;;;;7.90;44.52;99759.63;4491697;31;20776;-80
2022/03/17 04:41:22;;;;;;;26.35;14.27;;;;;;;8.04;44.33;99769.72;4472245;32;20148;-80
2022/03/17 04:43:48;;;;;;;26.77;12.85;;;;;;;7.93;44.51;99783.12;4486927;32;20110;-80
2022/03/17 04:46:13;;;;;;;30.33;13.88;;;;;;;7.60;45.46;99785.75;4485570;32;20080;-79
2022/03/17 04:48:39;;;;;;;28.00;13.57;;;;;;;7.64;45.48;99792.63;4486639;31;20477;-80
2022/03/17 04:51:05;;;;;;;27.65;13.05;;;;;;;7.61;45.62;99789.22;4486817;31;20089;-81
2022/03/17 04:53:32;;;;;;;30.25;14.15;;;;;;;7.68;45.46;99788.16;4485593;32;20104;-81
2022/03/17 04:55:58;;;;;;;29.25;13.18;;;;;;;7.44;45.83;99797.56;4486887;31;20152;-81
2022/03/17 04:58:24;;;;;;;25.15;13.75;;;;;;;7.61;45.44;99791.84;4486462;31;20499;-80
2022/03/17 05:00:52;;;;;;;28.85;13.68;;;;;;;7.61;45.48;99795.34;4486665;31;20110;-80
2022/03/17 05:03:19;;;;;;;28.75;14.30;;;;;;;7.83;45.01;99792.16;4487747;31;20091;-80
2022/03/17 05:05:44;;;;;;;25.88;13.73;;;;;;;7.90;44.84;99787.59;4502424;31;20156;-80
2022/03/17 05:08:10;;;;;;;27.77;13.38;;;;;;;7.89;44.70;99794.59;4502172;31;20100;-82
2022/03/17 05:10:35;;;;;;;27.13;14.18;;;;;;;7.88;44.88;99804.25;4502336;31;20118;-81
2022/03/17 05:13:05;;;;;;;29.92;14.55;;;;;;;7.76;44.95;99807.19;4502309;31;20466;-79
2022/03/17 05:15:31;;;;;;;27.55;14.15;;;;;;;7.84;44.72;99815.72;4488031;31;20092;-80
2022/03/17 05:17:56;;;;;;;25.95;14.38;;;;;;;7.83;44.63;99814.00;4499933;31;20449;-81
2022/03/17 05:20:22;;;;;;;30.88;14.07;;;;;;;7.80;44.72;99821.97;4485028;32;20152;-81
2022/03/17 05:22:48;;;;;;;28.45;14.68;;;;;;;7.84;44.54;99826.22;4486337;31;20092;-81
2022/03/17 05:25:13;;;;;;;31.77;14.87;;;;;;;7.95;44.56;99825.06;4485135;32;20383;-79
2022/03/17 05:27:39;;;;;;;30.45;15.88;;;;;;;7.97;44.17;99821.47;4486326;31;20360;-80
2022/03/17 05:30:05;;;;;;;29.87;14.32;;;;;;;7.95;44.02;99831.16;4486451;32;20092;-82
2022/03/17 05:32:32;;;;;;;29.17;14.98;;;;;;;8.23;43.64;99836.53;4485392;32;20983;-80
2022/03/17 05:34:57;;;;;;;28.08;14.40;;;;;;;8.06;43.78;99842.22;4495207;31;20087;-79
2022/03/17 05:37:23;;;;;;;29.52;16.00;;;;;;;8.10;43.86;99852.66;4500756;31;20145;-81
2022/03/17 05:39:49;;;;;;;29.30;15.02;;;;;;;8.28;43.50;99849.50;4502194;31;20088;-78
2022/03/17 05:42:15;;;;;;;26.73;14.25;;;;;;;8.49;42.77;99844.59;4501932;31;20107;-78
2022/03/17 05:44:40;;;;;;;29.40;14.70;;;;;;;8.40;42.67;99859.69;4488029;31;20100;-78
2022/03/17 05:47:06;;;;;;;29.83;15.57;;;;;;;8.67;42.25;99854.53;4502059;31;20102;-81
2022/03/17 05:49:31;;;;;;;34.00;14.98;;;;;;;8.83;42.48;99854.97;4501349;31;20084;-78
2022/03/17 05:51:57;;;;;;;26.35;14.68;;;;;;;8.86;42.17;99865.38;4484826;32;20092;-79
2022/03/17 05:54:22;;;;;;;29.45;15.10;;;;;;;9.03;41.67;99873.59;4484151;32;20080;-78
2022/03/17 05:56:48;;;;;;;30.00;15.38;;;;;;;9.15;41.29;99874.13;4486178;32;20357;-79
2022/03/17 05:59:13;;;;;;;28.75;15.18;;;;;;;9.24;40.52;99884.34;4485779;32;20432;-79
2022/03/17 06:01:39;;;;;;;31.12;15.77;;;;;;;9.27;40.77;99886.87;4484529;31;20095;-78
2022/03/17 06:04:04;;;;;;;30.27;15.18;;;;;;;8.80;41.18;99897.09;4486740;31;20122;-80
2022/03/17 06:06:29;;;;;;;32.25;15.23;;;;;;;9.31;40.55;99887.63;4500846;31;20130;-81
2022/03/17 06:08:55;;;;;;;29.77;15.32;;;;;;;9.53;40.03;99888.69;4501090;31;20115;-79
2022/03/17 06:11:21;;;;;;;30.65;15.90;;;;;;;9.46;40.00;99895.03;4500793;31;20095;-80
2022/03/17 06:13:47;;;;;;;33.33;16.17;;;;;;;9.64;39.47;99888.34;4499897;31;20081;-80
2022/03/17 06:16:13;;;;;;;31.12;16.60;;;;;;;9.79;39.44;99895.72;4484327;32;20132;-80
2022/03/17 06:18:40;;;;;;;31.65;16.50;;;;;;;9.87;39.44;99892.84;4485465;31;20113;-80
2022/03/17 06:21:05;;;;;;;30.58;16.10;;;;;;;9.72;39.31;99911.78;4485455;31;20092;-78
2022/03/17 06:23:31;;;;;;;31.83;16.37;;;;;;;9.80;38.81;99896.56;4484111;32;20103;-84
2022/03/17 06:25:56;;;;;;;32.15;16.55;;;;;;;9.86;39.14;99899.00;4484038;32;20112;-79
2022/03/17 06:28:22;;;;;;;32.63;16.62;;;;;;;10.01;39.09;99908.16;4485331;31;20125;-78
2022/03/17 06:30:47;;;;;;;35.05;17.73;;;;;;;10.08;38.98;99907.00;4493651;31;20115;-77
2022/03/17 06:33:14;;;;;;;30.35;15.65;;;;;;;10.29;38.36;99908.03;4500749;31;20084;-77
2022/03/17 06:35:40;;;;;;;31.80;15.95;;;;;;;10.19;38.59;99912.75;4484507;31;20101;-79
2022/03/17 06:38:06;;;;;;;31.08;15.98;;;;;;;10.18;38.17;99918.09;4499690;31;20126;-79
2022/03/17 06:40:32;;;;;;;31.30;17.08;;;;;;;10.13;38.56;99923.50;4474190;31;20120;-79
2022/03/17 06:42:58;;;;;;;32.63;17.90;;;;;;;10.21;37.78;99925.87;4487248;31;20479;-79
2022/03/17 06:45:25;;;;;;;33.63;18.05;;;;;;;10.33;37.71;99925.47;4486902;31;20093;-80
2022/03/17 06:47:50;;;;;;;28.42;16.08;;;;;;;10.28;37.40;99919.50;4472908;32;20168;-80
2022/03/17 06:50:16;;;;;;;34.70;17.50;;;;;;;10.47;37.71;99924.13;4473503;32;20115;-80
2022/03/17 06:52:42;;;;;;;33.28;17.65;;;;;;;10.35;37.82;99936.84;4488000;32;20119;-80
2022/03/17 06:55:09;;;;;;;32.05;16.75;;;;;;;10.46;37.57;99932.97;4473432;32;20108;-80
2022/03/17 06:57:34;;;;;;;32.97;17.00;;;;;;;10.65;37.46;99939.28;4487210;32;20123;-79
2022/03/17 07:00:03;;;;;;;28.73;16.70;;;;;;;10.45;37.17;99940.00;4463425;32;20389;-79
2022/03/17 07:02:29;;;;;;;32.70;18.17;;;;;;;10.74;37.17;99951.25;4488139;31;20084;-81
2022/03/17 07:04:54;;;;;;;33.92;17.83;;;;;;;10.59;37.03;99939.50;4487706;32;20138;-80
2022/03/17 07:07:19;;;;;;;32.53;18.23;;;;;;;10.60;37.39;99949.13;4473333;32;20345;-81
2022/03/17 07:09:45;;;;;;;32.28;17.50;;;;;;;10.49;37.45;99949.53;4486564;32;20088;-80
2022/03/17 07:12:11;;;;;;;34.92;18.98;;;;;;;10.48;36.94;99949.56;4487712;31;20095;-80
2022/03/17 07:14:38;;;;;;;34.05;18.85;;;;;;;10.46;36.76;99954.87;4487724;31;20104;-81
2022/03/17 07:17:04;;;;;;;35.38;18.77;;;;;;;10.48;37.01;99942.53;4501094;31;20122;-80
2022/03/17 07:19:30;;;;;;;31.05;16.92;;;;;;;10.47;36.97;99945.19;4503428;31;20372;-79
2022/03/17 07:21:55;;;;;;;34.17;17.70;;;;;;;10.65;36.78;99949.81;4503345;31;20143;-80
2022/03/17 07:24:21;;;;;;;32.70;18.05;;;;;;;10.63;36.78;99941.13;4503297;31;20096;-80
2022/03/17 07:26:46;;;;;;;30.75;17.33;;;;;;;10.59;36.91;99939.50;4503652;31;20084;-80
2022/03/17 07:29:12;;;;;;;35.15;17.87;;;;;;;10.44;37.67;99943.56;4489256;31;20462;-80
2022/03/17 07:31:37;;;;;;;34.75;18.10;;;;;;;10.54;37.98;99951.97;4500536;31;20138;-80
2022/03/17 07:34:03;;;;;;;32.97;17.25;;;;;;;10.50;37.93;99950.38;4486631;32;20150;-79
2022/03/17 07:36:29;;;;;;;34.80;17.95;;;;;;;10.34;38.67;99945.66;4486621;32;20096;-79
2022/03/17 07:38:55;;;;;;;36.03;19.25;;;;;;;10.41;38.58;99947.16;4473441;32;20099;-80
2022/03/17 07:41:22;;;;;;;34.55;18.67;;;;;;;10.28;39.00;99944.97;4486418;32;20088;-80
2022/03/17 07:43:47;;;;;;;31.98;16.92;;;;;;;10.12;39.62;99940.25;4487803;31;20157;-80
2022/03/17 07:46:13;;;;;;;31.30;18.35;;;;;;;10.29;39.87;99952.81;4486584;32;20097;-80
2022/03/17 07:48:38;;;;;;;35.42;18.80;;;;;;;10.08;40.19;99964.06;4498738;31;20451;-80
2022/03/17 07:51:04;;;;;;;35.55;18.45;;;;;;;10.19;40.15;99949.63;4503341;31;20076;-79
2022/03/17 07:53:30;;;;;;;35.28;19.00;;;;;;;10.12;40.33;99950.78;4503092;31;20156;-80
2022/03/17 07:55:56;;;;;;;34.58;19.08;;;;;;;10.01;40.77;99950.28;4488337;31;20100;-80
2022/03/17 07:58:26;;;;;;;36.33;18.50;;;;;;;10.20;40.48;99946.09;4475358;31;20145;-80
2022/03/17 08:00:56;;;;;;;36.15;18.77;;;;;;;10.12;40.72;99956.03;4502709;31;20530;-80
2022/03/17 08:03:21;;;;;;;35.50;20.25;;;;;;;10.18;40.97;99954.97;4485453;32;20124;-81
2022/03/17 08:05:48;;;;;;;32.85;18.05;;;;;;;10.16;40.95;99968.19;4487200;32;20436;-80
2022/03/17 08:08:17;;;;;;;36.90;18.20;;;;;;;10.14;41.51;99963.87;4473109;32;20110;-80
2022/03/17 08:10:43;;;;;;;35.10;18.45;;;;;;;10.36;40.96;99959.62;4473015;32;20635;-79
2022/03/17 08:13:09;;;;;;;36.28;19.40;;;;;;;10.30;41.03;99957.22;4473076;32;20464;-80
2022/03/17 08:15:41;;;;;;;35.35;18.48;;;;;;;10.50;40.92;99956.50;4473065;32;20186;-80
2022/03/17 08:18:08;;;;;;;33.08;18.23;;;;;;;10.60;41.02;99967.56;4487094;32;20170;-80
2022/03/17 08:20:38;;;;;;;35.97;18.10;;;;;;;10.57;40.91;99970.34;4473462;32;20436;-80
2022/03/17 08:23:03;;;;;;;37.53;19.65;;;;;;;10.76;40.71;99966.12;4477977;31;20112;-80
2022/03/17 08:25:29;;;;;;;33.78;18.48;;;;;;;10.67;41.17;99976.97;4488458;31;20135;-80
2022/03/17 08:27:55;;;;;;;34.05;18.45;;;;;;;10.63;40.66;99975.38;4503026;31;20107;-80
2022/03/17 08:30:21;;;;;;;37.50;19.48;;;;;;;10.61;41.04;99979.84;4495147;31;20099;-80
2022/03/17 08:32:46;;;;;;;35.45;18.15;;;;;;;10.85;40.60;99975.44;4486030;32;20346;-80
2022/03/17 08:35:14;;;;;;;33.92;18.00;;;;;;;10.94;40.71;99977.75;4495998;31;20119;-80
2022/03/17 08:37:43;;;;;;;31.85;17.33;;;;;;;11.10;40.73;99980.66;4503311;31;20111;-79
2022/03/17 08:40:10;;;;;;;33.55;17.45;;;;;;;11.03;40.33;99989.75;4488812;31;20151;-80
2022/03/17 08:42:36;;;;;;;35.08;18.60;;;;;;;10.95;40.11;99987.41;4503152;31;20245;-79
2022/03/17 08:49:18;;;;;;;35.55;19.23;;;;;;;10.66;40.67;100004.25;4503152;31;20112;-80
2022/03/17 08:50:31;;;;;;;31.50;18.75;;;;;;;10.73;40.56;99983.81;4474931;32;20534;-80
2022/03/17 08:52:56;;;;;;;36.03;20.35;;;;;;;10.60;41.06;99979.00;4486957;32;20108;-80
2022/03/17 08:55:21;;;;;;;36.55;18.60;;;;;;;10.79;41.02;99987.06;4472623;32;20175;-80
2022/03/17 08:57:49;;;;;;;34.53;18.12;;;;;;;10.90;41.40;99989.34;4486724;32;20112;-80
2022/03/17 09:00:15;;;;;;;38.10;19.70;;;;;;;10.97;40.75;99995.22;4486908;32;20110;-80
2022/03/17 09:02:43;;;;;;;36.22;19.00;;;;;;;11.13;40.78;99985.00;4489937;31;20092;-78
2022/03/17 09:05:08;;;;;;;34.55;18.90;;;;;;;11.29;40.49;99990.53;4502638;31;20607;-79
2022/03/17 09:07:34;;;;;;;33.60;18.35;;;;;;;11.29;40.00;99988.75;4488075;31;20099;-80
2022/03/17 09:09:59;;;;;;;35.08;19.15;;;;;;;11.45;39.45;99994.28;4502325;31;20080;-78
2022/03/17 09:12:24;;;;;;;36.28;19.48;;;;;;;11.54;39.74;99988.66;4502461;31;20093;-79
2022/03/17 09:14:50;;;;;;;31.67;18.85;;;;;;;11.54;39.29;99993.09;4502519;31;20084;-78
2022/03/17 09:17:15;;;;;;;38.65;19.62;;;;;;;11.43;38.97;99990.00;4479429;32;20083;-79
2022/03/17 09:19:40;;;;;;;35.08;20.02;;;;;;;11.48;38.53;99994.19;4486743;32;20386;-79
2022/03/17 09:22:07;;;;;;;34.67;19.80;;;;;;;11.54;38.49;99990.44;4486709;32;20069;-80
2022/03/17 09:24:32;;;;;;;35.40;19.50;;;;;;;11.69;38.31;99992.47;4486645;32;20118;-80
2022/03/17 09:26:59;;;;;;;36.05;20.17;;;;;;;11.81;37.77;99986.69;4486609;32;20459;-79
2022/03/17 09:29:27;;;;;;;36.63;20.30;;;;;;;11.61;38.50;99999.84;4486655;32;20085;-79
2022/03/17 09:31:52;;;;;;;34.25;19.30;;;;;;;11.78;37.92;99993.87;4498860;31;20459;-80
2022/03/17 09:34:18;;;;;;;35.30;19.50;;;;;;;11.63;38.31;99995.38;4488192;31;20119;-80
2022/03/17 09:36:43;;;;;;;36.00;20.77;;;;;;;11.72;37.66;100009.97;4475031;31;20104;-80
2022/03/17 09:41:53;;;;;;;35.88;19.50;;;;;;;11.77;37.72;100005.38;4502307;31;20114;-79
2022/03/17 09:44:18;;;;;;;35.15;19.42;;;;;;;11.64;38.00;100001.50;4500049;31;20108;-80
2022/03/17 09:46:44;;;;;;;35.88;19.48;;;;;;;11.79;37.87;100003.53;4486582;31;20096;-80
2022/03/17 09:49:10;;;;;;;37.38;20.70;;;;;;;11.66;37.99;99997.88;4485121;32;20064;-80
2022/03/17 09:51:36;;;;;;;36.10;19.92;;;;;;;11.70;38.38;99993.34;4485387;32;20177;-79
2022/03/17 09:54:02;;;;;;;35.80;20.80;;;;;;;11.74;38.30;99998.44;4476545;32;20388;-79
2022/03/17 09:56:28;;;;;;;36.42;21.17;;;;;;;11.96;38.08;99994.97;4486418;32;20174;-80
2022/03/17 09:58:55;;;;;;;34.47;19.77;;;;;;;11.99;37.74;99989.53;4474299;31;20107;-79
2022/03/17 10:01:22;;;;;;;40.00;21.27;;;;;;;12.11;37.19;99996.09;4464161;31;20449;-80
2022/03/17 10:03:48;;;;;;;36.27;21.10;;;;;;;12.18;37.03;99998.41;4490962;31;20092;-80
2022/03/17 10:06:15;;;;;;;36.92;21.85;;;;;;;12.16;36.66;100000.25;4473801;32;20387;-81
2022/03/17 10:08:48;;;;;;;41.58;22.25;;;;;;;12.32;36.80;100000.50;4472098;32;20140;-82
2022/03/17 10:11:15;;;;;;;38.10;20.80;;;;;;;12.34;36.25;100000.41;4486987;31;20100;-83
2022/03/17 10:13:45;;;;;;;38.70;20.83;;;;;;;12.12;37.15;100000.47;4486772;31;20108;-82
2022/03/17 10:16:20;;;;;;;40.60;21.05;;;;;;;12.44;36.61;100004.41;4501864;31;20103;-83
2022/03/17 10:18:46;;;;;;;37.78;22.00;;;;;;;12.46;36.48;99994.63;4474995;32;20102;-83
2022/03/17 10:21:13;;;;;;;40.50;23.35;;;;;;;12.63;36.06;99993.00;4471850;32;20097;-83
2022/03/17 10:23:45;;;;;;;37.00;21.48;;;;;;;12.74;35.89;99988.13;4487873;31;20473;-85
2022/03/17 10:26:11;;;;;;;38.70;23.17;;;;;;;12.48;36.56;99982.19;4491720;31;20435;-83
2022/03/17 10:28:38;;;;;;;40.42;22.65;;;;;;;12.62;36.14;99981.59;4479603;32;20427;-82
2022/03/17 10:31:05;;;;;;;37.75;21.52;;;;;;;12.66;35.67;99988.47;4488087;32;20258;-84
2022/03/17 10:33:31;;;;;;;42.33;22.95;;;;;;;12.50;35.76;99990.06;4487851;32;20088;-83
2022/03/17 10:36:16;;;;;;;37.97;22.30;;;;;;;12.80;35.35;99979.91;4488146;32;20110;-83
2022/03/17 10:38:42;;;;;;;37.40;21.83;;;;;;;12.79;35.09;99981.69;4473697;32;20076;-82
2022/03/17 10:41:11;;;;;;;37.42;22.20;;;;;;;12.80;35.28;99995.78;4460514;32;20176;-82
2022/03/17 10:43:39;;;;;;;40.88;22.35;;;;;;;12.69;35.42;99992.75;4500084;31;20450;-83
2022/03/17 10:46:20;;;;;;;42.60;23.42;;;;;;;12.69;35.72;99984.81;4489052;31;20131;-83
2022/03/17 10:49:03;;;;;;;41.67;23.33;;;;;;;12.85;35.72;99991.16;4476417;31;20106;-84
2022/03/17 10:51:37;;;;;;;38.30;21.48;;;;;;;12.73;35.98;99991.72;4503824;31;20096;-84
2022/03/17 10:54:03;;;;;;;39.90;22.92;;;;;;;12.99;35.84;99987.88;4489434;31;20100;-83
2022/03/17 10:56:28;;;;;;;39.53;22.30;;;;;;;13.18;34.91;99990.56;4498766;31;20080;-82
2022/03/17 10:58:54;;;;;;;37.45;21.75;;;;;;;13.26;35.13;99987.56;4486475;31;20161;-83
2022/03/17 11:01:34;;;;;;;38.75;21.65;;;;;;;13.13;34.91;99990.78;4480069;32;20113;-84
2022/03/17 11:04:00;;;;;;;37.63;21.85;;;;;;;13.24;34.68;100011.44;4477492;32;20101;-83
2022/03/17 11:06:28;;;;;;;39.60;21.92;;;;;;;12.86;35.70;100003.44;4466964;31;20135;-82
2022/03/17 11:08:54;;;;;;;39.67;23.17;;;;;;;12.94;36.00;99997.78;4489767;31;20076;-84
2022/03/17 11:11:20;;;;;;;36.25;21.42;;;;;;;13.09;36.05;100001.53;4486384;32;20096;-83
2022/03/17 11:13:46;;;;;;;39.47;22.52;;;;;;;13.28;35.37;100007.72;4489899;31;20092;-82
2022/03/17 11:16:13;;;;;;;38.25;20.88;;;;;;;13.27;35.09;100003.37;4478965;31;20116;-82
2022/03/17 11:18:40;;;;;;;36.70;20.95;;;;;;;13.52;34.92;100000.47;4478592;31;20092;-83
2022/03/17 11:21:19;;;;;;;39.70;22.03;;;;;;;13.70;34.70;100011.09;4475821;31;20500;-83
2022/03/17 11:23:59;;;;;;;37.42;21.00;;;;;;;13.70;34.39;100005.81;4486268;31;20518;-84
2022/03/17 11:26:34;;;;;;;37.47;20.65;;;;;;;13.60;34.38;99999.22;4500223;31;20088;-82
2022/03/17 11:29:07;;;;;;;37.70;22.52;;;;;;;13.65;34.37;100006.00;4490753;31;20100;-82
2022/03/17 11:31:54;;;;;;;35.63;21.15;;;;;;;13.41;34.49;100005.41;4492738;31;20123;-83
2022/03/17 11:34:37;;;;;;;35.75;21.65;;;;;;;13.50;34.55;100015.56;4477356;31;20415;-85